sensor_id;sensor_type;location;lat;lon;timestamp;temperature;humidity
52765;DHT22;38650;44.536;18.664;2022-09-09T00:02:00;23.40;99.90
52765;DHT22;38650;44.536;18.664;2022-09-09T00:04:37;23.50;99.90
52765;DHT22;38650;44.536;18.664;2022-09-09T00:10:26;23.50;99.90
52765;DHT22;38650;44.536;18.664;2022-09-09T00:15:24;23.50;99.90
52765;DHT22;38650;44.536;18.664;2022-09-09T00:20:34;23.50;99.90
52765;DHT22;38650;44.536;18.664;2022-09-09T00:26:03;23.50;99.90
52765;DHT22;38650;44.536;18.664;2022-09-09T00:28:30;23.50;99.90
52765;DHT22;38650;44.536;18.664;2022-09-09T00:31:11;23.60;99.90
52765;DHT22;38650;44.536;18.664;2022-09-09T00:33:38;23.60;99.90
52765;DHT22;38650;44.536;18.664;2022-09-09T00:36:12;23.70;99.90
52765;DHT22;38650;44.536;18.664;2022-09-09T00:38:50;23.60;99.90
52765;DHT22;38650;44.536;18.664;2022-09-09T00:57:36;23.30;99.90
52765;DHT22;38650;44.536;18.664;2022-09-09T01:00:23;23.10;99.90
52765;DHT22;38650;44.536;18.664;2022-09-09T01:06:00;23.10;99.90
52765;DHT22;38650;44.536;18.664;2022-09-09T01:08:53;23.10;99.90
52765;DHT22;38650;44.536;18.664;2022-09-09T01:16:54;23.20;99.90
52765;DHT22;38650;44.536;18.664;2022-09-09T01:28:08;23.40;99.90
52765;DHT22;38650;44.536;18.664;2022-09-09T01:30:37;23.40;99.90
52765;DHT22;38650;44.536;18.664;2022-09-09T01:33:03;23.40;99.90
52765;DHT22;38650;44.536;18.664;2022-09-09T01:35:49;23.50;99.90
52765;DHT22;38650;44.536;18.664;2022-09-09T01:38:20;23.50;99.90
52765;DHT22;38650;44.536;18.664;2022-09-09T01:40:46;23.50;99.90
52765;DHT22;38650;44.536;18.664;2022-09-09T01:43:12;23.50;99.90
52765;DHT22;38650;44.536;18.664;2022-09-09T01:45:39;23.40;99.90
52765;DHT22;38650;44.536;18.664;2022-09-09T01:48:06;23.40;99.90
52765;DHT22;38650;44.536;18.664;2022-09-09T01:50:32;23.30;99.90
52765;DHT22;38650;44.536;18.664;2022-09-09T01:52:59;23.20;99.90
52765;DHT22;38650;44.536;18.664;2022-09-09T01:55:31;22.90;99.90
52765;DHT22;38650;44.536;18.664;2022-09-09T02:00:35;22.70;99.90
52765;DHT22;38650;44.536;18.664;2022-09-09T02:03:14;22.70;99.90
52765;DHT22;38650;44.536;18.664;2022-09-09T02:08:18;22.70;99.90
52765;DHT22;38650;44.536;18.664;2022-09-09T02:13:32;22.20;99.90
52765;DHT22;38650;44.536;18.664;2022-09-09T02:16:08;22.10;99.90
52765;DHT22;38650;44.536;18.664;2022-09-09T02:21:21;21.50;99.90
52765;DHT22;38650;44.536;18.664;2022-09-09T02:23:48;21.10;99.90
52765;DHT22;38650;44.536;18.664;2022-09-09T02:26:19;20.90;99.90
52765;DHT22;38650;44.536;18.664;2022-09-09T02:28:51;20.80;99.90
52765;DHT22;38650;44.536;18.664;2022-09-09T02:31:22;20.70;99.90
52765;DHT22;38650;44.536;18.664;2022-09-09T02:33:57;20.80;99.90
52765;DHT22;38650;44.536;18.664;2022-09-09T02:36:26;21.00;99.90
52765;DHT22;38650;44.536;18.664;2022-09-09T02:38:54;21.00;99.90
52765;DHT22;38650;44.536;18.664;2022-09-09T02:41:26;20.90;99.90
52765;DHT22;38650;44.536;18.664;2022-09-09T02:43:53;21.00;99.90
52765;DHT22;38650;44.536;18.664;2022-09-09T02:49:10;21.20;99.90
52765;DHT22;38650;44.536;18.664;2022-09-09T02:54:27;21.30;99.90
52765;DHT22;38650;44.536;18.664;2022-09-09T02:57:02;21.30;99.90
52765;DHT22;38650;44.536;18.664;2022-09-09T02:59:30;21.30;99.90
52765;DHT22;38650;44.536;18.664;2022-09-09T03:01:55;21.40;99.90
52765;DHT22;38650;44.536;18.664;2022-09-09T03:04:21;21.50;99.90
52765;DHT22;38650;44.536;18.664;2022-09-09T03:06:47;21.50;99.90
52765;DHT22;38650;44.536;18.664;2022-09-09T03:09:13;21.40;99.90
52765;DHT22;38650;44.536;18.664;2022-09-09T03:11:38;21.40;99.90
52765;DHT22;38650;44.536;18.664;2022-09-09T03:14:04;21.30;99.90
52765;DHT22;38650;44.536;18.664;2022-09-09T03:16:30;21.40;99.90
52765;DHT22;38650;44.536;18.664;2022-09-09T03:18:56;21.50;99.90
52765;DHT22;38650;44.536;18.664;2022-09-09T03:21:21;21.40;99.90
52765;DHT22;38650;44.536;18.664;2022-09-09T03:23:47;21.40;99.90
52765;DHT22;38650;44.536;18.664;2022-09-09T03:26:13;21.40;99.90
52765;DHT22;38650;44.536;18.664;2022-09-09T03:28:41;21.50;99.90
52765;DHT22;38650;44.536;18.664;2022-09-09T03:31:07;21.60;99.90
52765;DHT22;38650;44.536;18.664;2022-09-09T03:33:36;21.60;99.90
52765;DHT22;38650;44.536;18.664;2022-09-09T03:36:03;21.50;99.90
52765;DHT22;38650;44.536;18.664;2022-09-09T03:38:29;21.30;99.90
52765;DHT22;38650;44.536;18.664;2022-09-09T03:40:56;21.20;99.90
52765;DHT22;38650;44.536;18.664;2022-09-09T03:43:26;21.30;99.90
52765;DHT22;38650;44.536;18.664;2022-09-09T03:45:52;21.40;99.90
52765;DHT22;38650;44.536;18.664;2022-09-09T03:48:19;21.50;99.90
52765;DHT22;38650;44.536;18.664;2022-09-09T03:50:52;21.60;99.90
52765;DHT22;38650;44.536;18.664;2022-09-09T03:53:21;21.60;99.90
52765;DHT22;38650;44.536;18.664;2022-09-09T03:55:52;21.60;99.90
52765;DHT22;38650;44.536;18.664;2022-09-09T03:58:24;21.60;99.90
52765;DHT22;38650;44.536;18.664;2022-09-09T04:00:56;21.60;99.90
52765;DHT22;38650;44.536;18.664;2022-09-09T04:03:23;21.60;99.90
52765;DHT22;38650;44.536;18.664;2022-09-09T04:05:53;21.70;99.90
52765;DHT22;38650;44.536;18.664;2022-09-09T04:08:20;21.70;99.90
52765;DHT22;38650;44.536;18.664;2022-09-09T04:10:49;21.60;99.90
52765;DHT22;38650;44.536;18.664;2022-09-09T04:13:16;21.60;99.90
52765;DHT22;38650;44.536;18.664;2022-09-09T04:15:52;21.60;99.90
52765;DHT22;38650;44.536;18.664;2022-09-09T04:18:19;21.60;99.90
52765;DHT22;38650;44.536;18.664;2022-09-09T04:20:52;21.70;99.90
52765;DHT22;38650;44.536;18.664;2022-09-09T04:23:18;21.70;99.90
52765;DHT22;38650;44.536;18.664;2022-09-09T04:25:50;21.70;99.90
52765;DHT22;38650;44.536;18.664;2022-09-09T04:28:18;21.70;99.90
52765;DHT22;38650;44.536;18.664;2022-09-09T04:30:45;21.70;99.90
52765;DHT22;38650;44.536;18.664;2022-09-09T04:33:11;21.70;99.90
52765;DHT22;38650;44.536;18.664;2022-09-09T04:35:38;21.60;99.90
52765;DHT22;38650;44.536;18.664;2022-09-09T04:38:04;21.50;99.90
52765;DHT22;38650;44.536;18.664;2022-09-09T04:40:32;21.50;99.90
52765;DHT22;38650;44.536;18.664;2022-09-09T04:42:59;21.60;99.90
52765;DHT22;38650;44.536;18.664;2022-09-09T04:45:25;21.60;99.90
52765;DHT22;38650;44.536;18.664;2022-09-09T04:47:52;21.70;99.90
52765;DHT22;38650;44.536;18.664;2022-09-09T04:50:18;21.60;99.90
52765;DHT22;38650;44.536;18.664;2022-09-09T04:52:44;21.60;99.90
52765;DHT22;38650;44.536;18.664;2022-09-09T04:55:10;21.60;99.90
52765;DHT22;38650;44.536;18.664;2022-09-09T04:57:35;21.60;99.90
52765;DHT22;38650;44.536;18.664;2022-09-09T05:00:02;21.70;99.90
52765;DHT22;38650;44.536;18.664;2022-09-09T05:02:28;21.80;99.90
52765;DHT22;38650;44.536;18.664;2022-09-09T05:04:55;21.70;99.90
52765;DHT22;38650;44.536;18.664;2022-09-09T05:07:21;21.60;99.90
52765;DHT22;38650;44.536;18.664;2022-09-09T05:09:47;21.60;99.90
52765;DHT22;38650;44.536;18.664;2022-09-09T05:12:17;21.70;99.90
52765;DHT22;38650;44.536;18.664;2022-09-09T05:14:44;21.80;99.90
52765;DHT22;38650;44.536;18.664;2022-09-09T05:17:10;21.80;99.90
52765;DHT22;38650;44.536;18.664;2022-09-09T05:19:36;21.70;99.90
52765;DHT22;38650;44.536;18.664;2022-09-09T05:22:02;21.70;99.90
52765;DHT22;38650;44.536;18.664;2022-09-09T05:24:27;21.70;99.90
52765;DHT22;38650;44.536;18.664;2022-09-09T05:26:53;21.70;99.90
52765;DHT22;38650;44.536;18.664;2022-09-09T05:29:19;21.80;99.90
52765;DHT22;38650;44.536;18.664;2022-09-09T05:31:45;21.70;99.90
52765;DHT22;38650;44.536;18.664;2022-09-09T05:34:12;21.70;99.90
52765;DHT22;38650;44.536;18.664;2022-09-09T05:36:38;21.80;99.90
52765;DHT22;38650;44.536;18.664;2022-09-09T05:39:04;21.90;99.90
52765;DHT22;38650;44.536;18.664;2022-09-09T05:41:30;22.00;99.90
52765;DHT22;38650;44.536;18.664;2022-09-09T05:43:58;22.00;99.90
52765;DHT22;38650;44.536;18.664;2022-09-09T05:46:27;22.10;99.90
52765;DHT22;38650;44.536;18.664;2022-09-09T05:48:53;22.10;99.90
52765;DHT22;38650;44.536;18.664;2022-09-09T05:51:21;22.40;99.90
52765;DHT22;38650;44.536;18.664;2022-09-09T05:53:48;23.10;99.90
52765;DHT22;38650;44.536;18.664;2022-09-09T05:56:19;23.90;99.90
52765;DHT22;38650;44.536;18.664;2022-09-09T05:58:47;23.90;99.90
52765;DHT22;38650;44.536;18.664;2022-09-09T06:01:14;24.40;99.90
52765;DHT22;38650;44.536;18.664;2022-09-09T06:03:41;24.60;99.90
52765;DHT22;38650;44.536;18.664;2022-09-09T06:06:09;25.00;99.90
52765;DHT22;38650;44.536;18.664;2022-09-09T06:08:38;25.40;99.90
52765;DHT22;38650;44.536;18.664;2022-09-09T06:11:06;26.20;99.90
52765;DHT22;38650;44.536;18.664;2022-09-09T06:13:32;25.90;99.90
52765;DHT22;38650;44.536;18.664;2022-09-09T06:15:58;25.80;99.90
52765;DHT22;38650;44.536;18.664;2022-09-09T06:18:24;25.70;99.90
52765;DHT22;38650;44.536;18.664;2022-09-09T06:21:01;25.40;99.90
52765;DHT22;38650;44.536;18.664;2022-09-09T06:23:30;25.10;99.90
52765;DHT22;38650;44.536;18.664;2022-09-09T06:26:08;24.90;99.90
52765;DHT22;38650;44.536;18.664;2022-09-09T06:28:35;24.80;99.90
52765;DHT22;38650;44.536;18.664;2022-09-09T06:31:06;24.70;99.90
52765;DHT22;38650;44.536;18.664;2022-09-09T06:33:33;24.70;99.90
52765;DHT22;38650;44.536;18.664;2022-09-09T06:36:01;24.80;99.90
52765;DHT22;38650;44.536;18.664;2022-09-09T06:38:29;24.90;99.90
52765;DHT22;38650;44.536;18.664;2022-09-09T06:40:57;25.10;99.90
52765;DHT22;38650;44.536;18.664;2022-09-09T06:43:24;25.10;99.90
52765;DHT22;38650;44.536;18.664;2022-09-09T06:46:03;25.10;99.90
52765;DHT22;38650;44.536;18.664;2022-09-09T06:48:29;25.20;99.90
52765;DHT22;38650;44.536;18.664;2022-09-09T06:51:06;25.70;99.90
52765;DHT22;38650;44.536;18.664;2022-09-09T06:53:33;25.60;99.90
52765;DHT22;38650;44.536;18.664;2022-09-09T06:56:21;25.30;99.90
52765;DHT22;38650;44.536;18.664;2022-09-09T06:59:07;26.10;99.90
52765;DHT22;38650;44.536;18.664;2022-09-09T07:01:36;28.70;99.90
52765;DHT22;38650;44.536;18.664;2022-09-09T07:04:05;32.00;97.10
52765;DHT22;38650;44.536;18.664;2022-09-09T07:06:41;34.00;87.20
52765;DHT22;38650;44.536;18.664;2022-09-09T07:09:10;35.00;77.20
52765;DHT22;38650;44.536;18.664;2022-09-09T07:11:44;36.00;72.40
52765;DHT22;38650;44.536;18.664;2022-09-09T07:14:11;36.90;68.10
52765;DHT22;38650;44.536;18.664;2022-09-09T07:16:44;35.60;68.80
52765;DHT22;38650;44.536;18.664;2022-09-09T07:19:11;35.80;68.70
52765;DHT22;38650;44.536;18.664;2022-09-09T07:21:41;37.10;65.60
52765;DHT22;38650;44.536;18.664;2022-09-09T07:24:06;37.30;61.60
52765;DHT22;38650;44.536;18.664;2022-09-09T07:26:37;37.30;64.50
52765;DHT22;38650;44.536;18.664;2022-09-09T07:29:04;38.10;62.50
52765;DHT22;38650;44.536;18.664;2022-09-09T07:31:32;39.00;59.10
52765;DHT22;38650;44.536;18.664;2022-09-09T07:33:59;40.10;57.10
52765;DHT22;38650;44.536;18.664;2022-09-09T07:36:28;39.80;55.60
52765;DHT22;38650;44.536;18.664;2022-09-09T07:39:09;38.50;55.40
52765;DHT22;38650;44.536;18.664;2022-09-09T07:41:46;37.70;57.30
52765;DHT22;38650;44.536;18.664;2022-09-09T07:44:15;38.30;57.10
52765;DHT22;38650;44.536;18.664;2022-09-09T07:46:42;38.70;54.80
52765;DHT22;38650;44.536;18.664;2022-09-09T07:49:08;37.20;56.10
52765;DHT22;38650;44.536;18.664;2022-09-09T07:51:38;35.70;57.60
52765;DHT22;38650;44.536;18.664;2022-09-09T07:54:07;34.50;59.10
52765;DHT22;38650;44.536;18.664;2022-09-09T07:56:35;33.60;61.60
52765;DHT22;38650;44.536;18.664;2022-09-09T07:59:02;33.10;66.10
52765;DHT22;38650;44.536;18.664;2022-09-09T08:01:34;32.60;64.70
52765;DHT22;38650;44.536;18.664;2022-09-09T08:04:14;32.40;67.80
52765;DHT22;38650;44.536;18.664;2022-09-09T08:06:42;32.90;67.70
52765;DHT22;38650;44.536;18.664;2022-09-09T08:09:09;33.10;68.80
52765;DHT22;38650;44.536;18.664;2022-09-09T08:11:36;33.00;68.10
52765;DHT22;38650;44.536;18.664;2022-09-09T08:14:03;32.40;69.10
52765;DHT22;38650;44.536;18.664;2022-09-09T08:16:32;32.30;70.10
52765;DHT22;38650;44.536;18.664;2022-09-09T08:18:58;32.00;72.80
52765;DHT22;38650;44.536;18.664;2022-09-09T08:21:29;31.80;73.20
52765;DHT22;38650;44.536;18.664;2022-09-09T08:23:56;31.60;72.00
52765;DHT22;38650;44.536;18.664;2022-09-09T08:26:30;31.40;73.50
52765;DHT22;38650;44.536;18.664;2022-09-09T08:28:57;31.70;72.70
52765;DHT22;38650;44.536;18.664;2022-09-09T08:31:35;31.80;73.00
52765;DHT22;38650;44.536;18.664;2022-09-09T08:34:03;31.90;72.70
52765;DHT22;38650;44.536;18.664;2022-09-09T08:36:32;32.60;74.40
52765;DHT22;38650;44.536;18.664;2022-09-09T08:39:02;34.00;71.20
52765;DHT22;38650;44.536;18.664;2022-09-09T08:44:48;35.60;61.40
52765;DHT22;38650;44.536;18.664;2022-09-09T08:52:49;36.30;61.90
52765;DHT22;38650;44.536;18.664;2022-09-09T08:55:24;36.40;61.40
52765;DHT22;38650;44.536;18.664;2022-09-09T08:57:56;36.10;60.80
52765;DHT22;38650;44.536;18.664;2022-09-09T09:00:33;35.80;61.80
52765;DHT22;38650;44.536;18.664;2022-09-09T09:03:09;35.50;60.90
52765;DHT22;38650;44.536;18.664;2022-09-09T09:05:57;35.10;64.50
52765;DHT22;38650;44.536;18.664;2022-09-09T09:08:46;35.00;61.00
52765;DHT22;38650;44.536;18.664;2022-09-09T09:11:14;34.90;59.50
52765;DHT22;38650;44.536;18.664;2022-09-09T09:13:45;35.00;62.50
52765;DHT22;38650;44.536;18.664;2022-09-09T09:18:58;35.20;58.70
52765;DHT22;38650;44.536;18.664;2022-09-09T09:21:36;34.60;61.70
52765;DHT22;38650;44.536;18.664;2022-09-09T09:24:12;34.20;59.20
52765;DHT22;38650;44.536;18.664;2022-09-09T09:26:43;34.10;60.50
52765;DHT22;38650;44.536;18.664;2022-09-09T09:29:18;34.60;61.30
52765;DHT22;38650;44.536;18.664;2022-09-09T09:32:03;34.80;59.00
52765;DHT22;38650;44.536;18.664;2022-09-09T09:34:29;34.40;59.40
52765;DHT22;38650;44.536;18.664;2022-09-09T09:37:00;33.90;61.50
52765;DHT22;38650;44.536;18.664;2022-09-09T09:39:31;33.70;62.60
52765;DHT22;38650;44.536;18.664;2022-09-09T09:42:12;33.70;62.70
52765;DHT22;38650;44.536;18.664;2022-09-09T09:44:40;33.50;59.20
52765;DHT22;38650;44.536;18.664;2022-09-09T09:47:14;33.30;62.70
52765;DHT22;38650;44.536;18.664;2022-09-09T09:49:57;33.20;61.10
52765;DHT22;38650;44.536;18.664;2022-09-09T09:52:29;33.30;63.10
52765;DHT22;38650;44.536;18.664;2022-09-09T09:54:57;33.70;60.40
52765;DHT22;38650;44.536;18.664;2022-09-09T09:57:28;33.50;59.20
52765;DHT22;38650;44.536;18.664;2022-09-09T10:02:39;32.80;61.10
52765;DHT22;38650;44.536;18.664;2022-09-09T10:05:14;33.30;61.50
52765;DHT22;38650;44.536;18.664;2022-09-09T10:07:41;33.90;61.60
52765;DHT22;38650;44.536;18.664;2022-09-09T10:10:13;34.20;61.10
52765;DHT22;38650;44.536;18.664;2022-09-09T10:18:54;34.00;59.50
52765;DHT22;38650;44.536;18.664;2022-09-09T10:30:17;33.80;60.70
52765;DHT22;38650;44.536;18.664;2022-09-09T10:35:44;34.00;60.00
52765;DHT22;38650;44.536;18.664;2022-09-09T10:38:37;34.20;59.20
52765;DHT22;38650;44.536;18.664;2022-09-09T10:55:24;33.40;57.90
52765;DHT22;38650;44.536;18.664;2022-09-09T10:57:54;33.20;61.40
52765;DHT22;38650;44.536;18.664;2022-09-09T11:03:03;33.50;59.60
52765;DHT22;38650;44.536;18.664;2022-09-09T11:05:43;33.70;60.40
52765;DHT22;38650;44.536;18.664;2022-09-09T11:08:11;33.70;58.80
52765;DHT22;38650;44.536;18.664;2022-09-09T11:13:20;33.90;58.00
52765;DHT22;38650;44.536;18.664;2022-09-09T11:15:53;33.90;57.30
52765;DHT22;38650;44.536;18.664;2022-09-09T11:18:23;34.00;57.70
52765;DHT22;38650;44.536;18.664;2022-09-09T11:20:53;33.90;57.30
52765;DHT22;38650;44.536;18.664;2022-09-09T11:23:39;33.70;57.80
52765;DHT22;38650;44.536;18.664;2022-09-09T11:26:07;33.70;57.90
52765;DHT22;38650;44.536;18.664;2022-09-09T11:37:37;33.30;59.00
52765;DHT22;38650;44.536;18.664;2022-09-09T11:42:28;33.40;58.30
52765;DHT22;38650;44.536;18.664;2022-09-09T11:44:54;33.40;58.40
52765;DHT22;38650;44.536;18.664;2022-09-09T11:47:28;33.30;58.80
52765;DHT22;38650;44.536;18.664;2022-09-09T11:52:43;33.70;57.20
52765;DHT22;38650;44.536;18.664;2022-09-09T11:58:01;33.70;57.10
52765;DHT22;38650;44.536;18.664;2022-09-09T12:00:33;33.40;57.90
52765;DHT22;38650;44.536;18.664;2022-09-09T12:02:59;33.70;60.70
52765;DHT22;38650;44.536;18.664;2022-09-09T12:05:39;34.40;58.00
52765;DHT22;38650;44.536;18.664;2022-09-09T12:08:07;34.50;58.00
52765;DHT22;38650;44.536;18.664;2022-09-09T12:10:40;34.30;58.90
52765;DHT22;38650;44.536;18.664;2022-09-09T12:15:49;34.90;56.00
52765;DHT22;38650;44.536;18.664;2022-09-09T12:18:31;34.80;54.70
52765;DHT22;38650;44.536;18.664;2022-09-09T12:23:51;35.20;55.80
52765;DHT22;38650;44.536;18.664;2022-09-09T12:26:43;35.60;57.20
52765;DHT22;38650;44.536;18.664;2022-09-09T12:32:07;36.50;53.60
52765;DHT22;38650;44.536;18.664;2022-09-09T12:37:36;36.50;53.50
52765;DHT22;38650;44.536;18.664;2022-09-09T12:40:29;36.40;52.80
52765;DHT22;38650;44.536;18.664;2022-09-09T12:42:55;36.30;52.20
52765;DHT22;38650;44.536;18.664;2022-09-09T12:45:23;35.90;53.60
52765;DHT22;38650;44.536;18.664;2022-09-09T12:48:10;35.60;53.50
52765;DHT22;38650;44.536;18.664;2022-09-09T12:50:43;35.60;51.80
52765;DHT22;38650;44.536;18.664;2022-09-09T12:53:15;35.40;54.60
52765;DHT22;38650;44.536;18.664;2022-09-09T12:56:00;35.60;53.00
52765;DHT22;38650;44.536;18.664;2022-09-09T12:58:27;36.00;53.40
52765;DHT22;38650;44.536;18.664;2022-09-09T13:00:58;36.20;51.70
52765;DHT22;38650;44.536;18.664;2022-09-09T13:03:25;35.90;52.70
52765;DHT22;38650;44.536;18.664;2022-09-09T13:05:52;35.40;54.00
52765;DHT22;38650;44.536;18.664;2022-09-09T13:08:19;35.30;54.80
52765;DHT22;38650;44.536;18.664;2022-09-09T13:10:59;35.40;54.70
52765;DHT22;38650;44.536;18.664;2022-09-09T13:13:36;35.50;51.90
52765;DHT22;38650;44.536;18.664;2022-09-09T13:16:04;35.60;54.30
52765;DHT22;38650;44.536;18.664;2022-09-09T13:18:36;35.70;55.10
52765;DHT22;38650;44.536;18.664;2022-09-09T13:21:03;36.00;52.30
52765;DHT22;38650;44.536;18.664;2022-09-09T13:23:31;35.90;52.60
52765;DHT22;38650;44.536;18.664;2022-09-09T13:26:02;36.10;53.10
52765;DHT22;38650;44.536;18.664;2022-09-09T13:28:30;36.00;51.40
52765;DHT22;38650;44.536;18.664;2022-09-09T13:31:19;36.00;51.60
52765;DHT22;38650;44.536;18.664;2022-09-09T13:33:45;36.20;51.80
52765;DHT22;38650;44.536;18.664;2022-09-09T13:36:12;36.40;50.20
52765;DHT22;38650;44.536;18.664;2022-09-09T13:41:19;36.20;50.10
52765;DHT22;38650;44.536;18.664;2022-09-09T13:43:47;36.40;51.00
52765;DHT22;38650;44.536;18.664;2022-09-09T13:46:30;36.20;50.40
52765;DHT22;38650;44.536;18.664;2022-09-09T13:48:58;36.10;53.70
52765;DHT22;38650;44.536;18.664;2022-09-09T13:51:34;36.30;50.80
52765;DHT22;38650;44.536;18.664;2022-09-09T13:54:05;36.40;51.70
52765;DHT22;38650;44.536;18.664;2022-09-09T13:56:33;36.20;50.00
52765;DHT22;38650;44.536;18.664;2022-09-09T13:58:59;36.10;51.40
52765;DHT22;38650;44.536;18.664;2022-09-09T14:01:24;36.20;50.90
52765;DHT22;38650;44.536;18.664;2022-09-09T14:03:50;36.30;51.70
52765;DHT22;38650;44.536;18.664;2022-09-09T14:06:16;36.60;50.10
52765;DHT22;38650;44.536;18.664;2022-09-09T14:08:44;36.20;50.80
52765;DHT22;38650;44.536;18.664;2022-09-09T14:11:12;35.80;50.30
52765;DHT22;38650;44.536;18.664;2022-09-09T14:13:38;35.70;49.90
52765;DHT22;38650;44.536;18.664;2022-09-09T14:16:04;35.90;51.10
52765;DHT22;38650;44.536;18.664;2022-09-09T14:18:30;36.10;53.00
52765;DHT22;38650;44.536;18.664;2022-09-09T14:20:56;36.40;51.70
52765;DHT22;38650;44.536;18.664;2022-09-09T14:23:22;36.60;50.80
52765;DHT22;38650;44.536;18.664;2022-09-09T14:25:50;36.70;50.90
52765;DHT22;38650;44.536;18.664;2022-09-09T14:28:16;36.60;49.20
52765;DHT22;38650;44.536;18.664;2022-09-09T14:30:43;36.40;49.80
52765;DHT22;38650;44.536;18.664;2022-09-09T14:33:12;36.10;49.60
52765;DHT22;38650;44.536;18.664;2022-09-09T14:35:38;35.80;50.10
52765;DHT22;38650;44.536;18.664;2022-09-09T14:38:05;35.70;50.30
52765;DHT22;38650;44.536;18.664;2022-09-09T14:40:30;35.70;51.30
52765;DHT22;38650;44.536;18.664;2022-09-09T14:42:56;35.70;50.40
52765;DHT22;38650;44.536;18.664;2022-09-09T14:45:23;35.10;50.40
52765;DHT22;38650;44.536;18.664;2022-09-09T14:47:50;35.10;52.00
52765;DHT22;38650;44.536;18.664;2022-09-09T14:50:17;34.80;51.60
52765;DHT22;38650;44.536;18.664;2022-09-09T14:52:43;34.50;51.80
52765;DHT22;38650;44.536;18.664;2022-09-09T14:55:09;34.40;53.00
52765;DHT22;38650;44.536;18.664;2022-09-09T14:57:36;34.20;54.90
52765;DHT22;38650;44.536;18.664;2022-09-09T15:00:05;34.10;54.20
52765;DHT22;38650;44.536;18.664;2022-09-09T15:02:32;34.00;55.80
52765;DHT22;38650;44.536;18.664;2022-09-09T15:04:58;33.70;56.80
52765;DHT22;38650;44.536;18.664;2022-09-09T15:07:27;33.20;57.80
52765;DHT22;38650;44.536;18.664;2022-09-09T15:09:54;33.00;58.40
52765;DHT22;38650;44.536;18.664;2022-09-09T15:12:20;32.60;59.00
52765;DHT22;38650;44.536;18.664;2022-09-09T15:14:46;32.00;61.10
52765;DHT22;38650;44.536;18.664;2022-09-09T15:17:12;31.60;62.50
52765;DHT22;38650;44.536;18.664;2022-09-09T15:19:38;31.60;62.50
52765;DHT22;38650;44.536;18.664;2022-09-09T15:22:05;31.70;64.00
52765;DHT22;38650;44.536;18.664;2022-09-09T15:24:32;32.00;70.40
52765;DHT22;38650;44.536;18.664;2022-09-09T15:26:58;31.80;83.20
52765;DHT22;38650;44.536;18.664;2022-09-09T15:29:24;31.60;94.00
52765;DHT22;38650;44.536;18.664;2022-09-09T15:31:49;31.30;83.80
52765;DHT22;38650;44.536;18.664;2022-09-09T15:34:15;30.80;91.50
52765;DHT22;38650;44.536;18.664;2022-09-09T15:36:43;30.20;95.20
52765;DHT22;38650;44.536;18.664;2022-09-09T15:39:11;29.80;99.40
52765;DHT22;38650;44.536;18.664;2022-09-09T15:41:38;29.20;99.90
52765;DHT22;38650;44.536;18.664;2022-09-09T15:44:05;28.80;99.90
52765;DHT22;38650;44.536;18.664;2022-09-09T15:46:34;28.60;99.90
52765;DHT22;38650;44.536;18.664;2022-09-09T15:49:16;28.40;99.90
52765;DHT22;38650;44.536;18.664;2022-09-09T15:51:45;28.20;99.90
52765;DHT22;38650;44.536;18.664;2022-09-09T15:54:13;27.90;99.90
52765;DHT22;38650;44.536;18.664;2022-09-09T15:56:42;27.50;99.90
52765;DHT22;38650;44.536;18.664;2022-09-09T15:59:08;27.10;99.90
52765;DHT22;38650;44.536;18.664;2022-09-09T16:01:34;26.90;99.90
52765;DHT22;38650;44.536;18.664;2022-09-09T16:04:00;26.70;99.90
52765;DHT22;38650;44.536;18.664;2022-09-09T16:06:27;26.90;99.90
52765;DHT22;38650;44.536;18.664;2022-09-09T16:08:55;27.00;99.90
52765;DHT22;38650;44.536;18.664;2022-09-09T16:11:26;27.00;99.90
52765;DHT22;38650;44.536;18.664;2022-09-09T16:13:54;27.00;99.90
52765;DHT22;38650;44.536;18.664;2022-09-09T16:16:22;27.00;99.90
52765;DHT22;38650;44.536;18.664;2022-09-09T16:18:52;26.70;99.90
52765;DHT22;38650;44.536;18.664;2022-09-09T16:21:22;26.40;99.90
52765;DHT22;38650;44.536;18.664;2022-09-09T16:23:50;26.00;99.90
52765;DHT22;38650;44.536;18.664;2022-09-09T16:26:17;25.90;99.90
52765;DHT22;38650;44.536;18.664;2022-09-09T16:28:43;25.80;99.90
52765;DHT22;38650;44.536;18.664;2022-09-09T16:31:13;25.90;99.90
52765;DHT22;38650;44.536;18.664;2022-09-09T16:33:40;25.90;99.90
52765;DHT22;38650;44.536;18.664;2022-09-09T16:36:08;26.00;99.90
52765;DHT22;38650;44.536;18.664;2022-09-09T16:38:36;26.00;99.90
52765;DHT22;38650;44.536;18.664;2022-09-09T16:41:03;25.90;99.90
52765;DHT22;38650;44.536;18.664;2022-09-09T16:43:31;26.10;99.90
52765;DHT22;38650;44.536;18.664;2022-09-09T16:45:57;26.20;99.90
52765;DHT22;38650;44.536;18.664;2022-09-09T16:48:26;26.20;99.90
52765;DHT22;38650;44.536;18.664;2022-09-09T16:50:52;26.20;99.90
52765;DHT22;38650;44.536;18.664;2022-09-09T16:53:18;26.20;99.90
52765;DHT22;38650;44.536;18.664;2022-09-09T16:55:44;26.20;99.90
52765;DHT22;38650;44.536;18.664;2022-09-09T16:58:12;26.00;99.90
52765;DHT22;38650;44.536;18.664;2022-09-09T17:00:38;25.30;99.90
52765;DHT22;38650;44.536;18.664;2022-09-09T17:03:04;25.10;99.90
52765;DHT22;38650;44.536;18.664;2022-09-09T17:05:30;25.20;99.90
52765;DHT22;38650;44.536;18.664;2022-09-09T17:07:58;25.30;99.90
52765;DHT22;38650;44.536;18.664;2022-09-09T17:10:25;25.50;99.90
52765;DHT22;38650;44.536;18.664;2022-09-09T17:12:50;25.80;99.90
52765;DHT22;38650;44.536;18.664;2022-09-09T17:15:16;25.80;99.90
52765;DHT22;38650;44.536;18.664;2022-09-09T17:17:43;25.70;99.90
52765;DHT22;38650;44.536;18.664;2022-09-09T17:20:10;25.90;99.90
52765;DHT22;38650;44.536;18.664;2022-09-09T17:22:36;26.20;99.90
52765;DHT22;38650;44.536;18.664;2022-09-09T17:25:03;26.30;99.90
52765;DHT22;38650;44.536;18.664;2022-09-09T17:27:29;26.10;99.90
52765;DHT22;38650;44.536;18.664;2022-09-09T17:29:57;26.10;99.90
52765;DHT22;38650;44.536;18.664;2022-09-09T17:32:23;26.10;99.90
52765;DHT22;38650;44.536;18.664;2022-09-09T17:34:49;26.00;99.90
52765;DHT22;38650;44.536;18.664;2022-09-09T17:37:15;25.70;99.90
52765;DHT22;38650;44.536;18.664;2022-09-09T17:39:41;25.50;99.90
52765;DHT22;38650;44.536;18.664;2022-09-09T17:42:07;25.70;99.90
52765;DHT22;38650;44.536;18.664;2022-09-09T17:44:35;25.80;99.90
52765;DHT22;38650;44.536;18.664;2022-09-09T17:47:01;25.40;99.90
52765;DHT22;38650;44.536;18.664;2022-09-09T17:49:29;25.20;99.90
52765;DHT22;38650;44.536;18.664;2022-09-09T17:51:55;25.20;99.90
52765;DHT22;38650;44.536;18.664;2022-09-09T17:54:21;25.10;99.90